sensor_id;sensor_type;location;lat;lon;timestamp;P1;durP1;ratioP1;P2;durP2;ratioP2
44764;SDS011;30484;52.382;5.260;2023-12-28T00:00:04;11.02;;;3.70;;
44764;SDS011;30484;52.382;5.260;2023-12-28T00:02:34;8.93;;;3.25;;
44764;SDS011;30484;52.382;5.260;2023-12-28T00:05:03;15.65;;;3.45;;
44764;SDS011;30484;52.382;5.260;2023-12-28T00:07:32;13.05;;;3.47;;
44764;SDS011;30484;52.382;5.260;2023-12-28T00:10:02;12.20;;;3.40;;
44764;SDS011;30484;52.382;5.260;2023-12-28T00:12:31;15.35;;;3.58;;
44764;SDS011;30484;52.382;5.260;2023-12-28T00:14:59;14.68;;;3.33;;
44764;SDS011;30484;52.382;5.260;2023-12-28T00:17:28;15.55;;;4.05;;
44764;SDS011;30484;52.382;5.260;2023-12-28T00:19:56;16.05;;;3.38;;
44764;SDS011;30484;52.382;5.260;2023-12-28T00:22:24;9.90;;;3.55;;
44764;SDS011;30484;52.382;5.260;2023-12-28T00:24:53;9.60;;;3.60;;
44764;SDS011;30484;52.382;5.260;2023-12-28T00:27:22;11.10;;;3.65;;
44764;SDS011;30484;52.382;5.260;2023-12-28T00:29:50;11.70;;;3.97;;
44764;SDS011;30484;52.382;5.260;2023-12-28T00:32:19;15.70;;;3.60;;
44764;SDS011;30484;52.382;5.260;2023-12-28T00:34:47;11.10;;;3.53;;
44764;SDS011;30484;52.382;5.260;2023-12-28T00:37:15;12.55;;;3.25;;
44764;SDS011;30484;52.382;5.260;2023-12-28T00:39:44;14.52;;;3.42;;
44764;SDS011;30484;52.382;5.260;2023-12-28T00:42:13;18.08;;;4.18;;
44764;SDS011;30484;52.382;5.260;2023-12-28T00:44:43;11.95;;;3.15;;
44764;SDS011;30484;52.382;5.260;2023-12-28T00:47:11;15.23;;;3.65;;
44764;SDS011;30484;52.382;5.260;2023-12-28T00:49:39;16.05;;;3.40;;
44764;SDS011;30484;52.382;5.260;2023-12-28T00:52:08;17.58;;;3.42;;
44764;SDS011;30484;52.382;5.260;2023-12-28T00:54:36;18.42;;;3.42;;
44764;SDS011;30484;52.382;5.260;2023-12-28T00:57:04;17.80;;;3.30;;
44764;SDS011;30484;52.382;5.260;2023-12-28T00:59:32;12.88;;;3.60;;
44764;SDS011;30484;52.382;5.260;2023-12-28T01:02:02;18.63;;;3.53;;
44764;SDS011;30484;52.382;5.260;2023-12-28T01:04:31;18.00;;;3.92;;
44764;SDS011;30484;52.382;5.260;2023-12-28T01:06:59;15.07;;;3.15;;
44764;SDS011;30484;52.382;5.260;2023-12-28T01:09:31;10.40;;;3.17;;
44764;SDS011;30484;52.382;5.260;2023-12-28T01:11:59;16.95;;;3.67;;
44764;SDS011;30484;52.382;5.260;2023-12-28T01:14:28;13.07;;;3.35;;
44764;SDS011;30484;52.382;5.260;2023-12-28T01:16:56;17.92;;;3.40;;
44764;SDS011;30484;52.382;5.260;2023-12-28T01:19:26;19.55;;;3.83;;
44764;SDS011;30484;52.382;5.260;2023-12-28T01:21:54;13.73;;;2.88;;
44764;SDS011;30484;52.382;5.260;2023-12-28T01:24:22;20.42;;;3.40;;
44764;SDS011;30484;52.382;5.260;2023-12-28T01:26:52;8.32;;;2.70;;
44764;SDS011;30484;52.382;5.260;2023-12-28T01:29:21;18.45;;;3.00;;
44764;SDS011;30484;52.382;5.260;2023-12-28T01:31:49;14.93;;;3.40;;
44764;SDS011;30484;52.382;5.260;2023-12-28T01:34:17;16.85;;;2.75;;
44764;SDS011;30484;52.382;5.260;2023-12-28T01:36:47;16.33;;;2.72;;
44764;SDS011;30484;52.382;5.260;2023-12-28T01:39:15;15.68;;;2.70;;
44764;SDS011;30484;52.382;5.260;2023-12-28T01:41:44;14.77;;;3.15;;
44764;SDS011;30484;52.382;5.260;2023-12-28T01:44:12;11.07;;;2.63;;
44764;SDS011;30484;52.382;5.260;2023-12-28T01:46:41;12.30;;;2.60;;
44764;SDS011;30484;52.382;5.260;2023-12-28T01:49:09;16.50;;;2.78;;
44764;SDS011;30484;52.382;5.260;2023-12-28T01:51:38;12.98;;;3.03;;
44764;SDS011;30484;52.382;5.260;2023-12-28T01:54:08;11.50;;;2.20;;
44764;SDS011;30484;52.382;5.260;2023-12-28T01:56:36;8.57;;;2.67;;
44764;SDS011;30484;52.382;5.260;2023-12-28T01:59:05;11.25;;;2.70;;
44764;SDS011;30484;52.382;5.260;2023-12-28T02:01:34;20.10;;;3.10;;
44764;SDS011;30484;52.382;5.260;2023-12-28T02:04:02;12.02;;;2.75;;
44764;SDS011;30484;52.382;5.260;2023-12-28T02:06:31;12.40;;;2.72;;
44764;SDS011;30484;52.382;5.260;2023-12-28T02:08:59;15.82;;;3.08;;
44764;SDS011;30484;52.382;5.260;2023-12-28T02:11:29;16.30;;;3.30;;
44764;SDS011;30484;52.382;5.260;2023-12-28T02:13:57;11.77;;;2.83;;
44764;SDS011;30484;52.382;5.260;2023-12-28T02:16:32;13.50;;;2.78;;
44764;SDS011;30484;52.382;5.260;2023-12-28T02:19:08;13.38;;;2.90;;
44764;SDS011;30484;52.382;5.260;2023-12-28T02:21:51;11.10;;;2.70;;
44764;SDS011;30484;52.382;5.260;2023-12-28T02:24:22;15.38;;;3.03;;
44764;SDS011;30484;52.382;5.260;2023-12-28T02:26:51;14.40;;;3.10;;
44764;SDS011;30484;52.382;5.260;2023-12-28T02:29:19;18.60;;;3.72;;
44764;SDS011;30484;52.382;5.260;2023-12-28T02:31:49;10.38;;;3.28;;
44764;SDS011;30484;52.382;5.260;2023-12-28T02:34:27;15.02;;;3.53;;
44764;SDS011;30484;52.382;5.260;2023-12-28T02:37:02;13.55;;;2.92;;
44764;SDS011;30484;52.382;5.260;2023-12-28T02:39:32;11.15;;;2.78;;
44764;SDS011;30484;52.382;5.260;2023-12-28T02:42:03;10.95;;;2.88;;
44764;SDS011;30484;52.382;5.260;2023-12-28T02:44:32;9.55;;;2.80;;
44764;SDS011;30484;52.382;5.260;2023-12-28T02:47:00;11.77;;;2.53;;
44764;SDS011;30484;52.382;5.260;2023-12-28T02:49:28;15.02;;;2.85;;
44764;SDS011;30484;52.382;5.260;2023-12-28T02:51:56;13.60;;;2.80;;
44764;SDS011;30484;52.382;5.260;2023-12-28T02:54:25;11.77;;;2.90;;
44764;SDS011;30484;52.382;5.260;2023-12-28T02:56:53;11.80;;;3.17;;
44764;SDS011;30484;52.382;5.260;2023-12-28T02:59:23;9.60;;;2.92;;
44764;SDS011;30484;52.382;5.260;2023-12-28T03:01:51;17.80;;;2.90;;
44764;SDS011;30484;52.382;5.260;2023-12-28T03:04:19;8.55;;;2.50;;
44764;SDS011;30484;52.382;5.260;2023-12-28T03:06:48;9.45;;;2.75;;
44764;SDS011;30484;52.382;5.260;2023-12-28T03:09:16;11.93;;;2.65;;
44764;SDS011;30484;52.382;5.260;2023-12-28T03:11:44;11.77;;;2.70;;
44764;SDS011;30484;52.382;5.260;2023-12-28T03:14:12;7.57;;;2.92;;
44764;SDS011;30484;52.382;5.260;2023-12-28T03:16:42;13.30;;;2.58;;
44764;SDS011;30484;52.382;5.260;2023-12-28T03:19:10;10.50;;;2.50;;
44764;SDS011;30484;52.382;5.260;2023-12-28T03:21:39;12.00;;;2.95;;
44764;SDS011;30484;52.382;5.260;2023-12-28T03:24:08;9.52;;;2.70;;
44764;SDS011;30484;52.382;5.260;2023-12-28T03:26:37;15.98;;;3.10;;
44764;SDS011;30484;52.382;5.260;2023-12-28T03:29:06;10.70;;;2.85;;
44764;SDS011;30484;52.382;5.260;2023-12-28T03:31:38;13.63;;;3.25;;
44764;SDS011;30484;52.382;5.260;2023-12-28T03:34:08;19.83;;;3.22;;
44764;SDS011;30484;52.382;5.260;2023-12-28T03:36:36;12.73;;;3.20;;
44764;SDS011;30484;52.382;5.260;2023-12-28T03:39:05;11.38;;;2.70;;
44764;SDS011;30484;52.382;5.260;2023-12-28T03:41:33;12.05;;;2.63;;
44764;SDS011;30484;52.382;5.260;2023-12-28T03:44:02;12.65;;;3.03;;
44764;SDS011;30484;52.382;5.260;2023-12-28T03:46:29;9.75;;;2.58;;
44764;SDS011;30484;52.382;5.260;2023-12-28T03:48:57;15.48;;;3.08;;
44764;SDS011;30484;52.382;5.260;2023-12-28T03:51:27;11.35;;;2.60;;
44764;SDS011;30484;52.382;5.260;2023-12-28T03:53:55;8.38;;;2.47;;
44764;SDS011;30484;52.382;5.260;2023-12-28T03:56:25;11.70;;;2.78;;
44764;SDS011;30484;52.382;5.260;2023-12-28T03:58:56;9.77;;;2.60;;
44764;SDS011;30484;52.382;5.260;2023-12-28T04:01:24;7.15;;;2.53;;
44764;SDS011;30484;52.382;5.260;2023-12-28T04:03:53;18.35;;;2.67;;
44764;SDS011;30484;52.382;5.260;2023-12-28T04:06:21;15.60;;;2.25;;
44764;SDS011;30484;52.382;5.260;2023-12-28T04:08:51;7.82;;;2.15;;
44764;SDS011;30484;52.382;5.260;2023-12-28T04:11:19;15.77;;;2.55;;
44764;SDS011;30484;52.382;5.260;2023-12-28T04:13:47;16.15;;;2.80;;
44764;SDS011;30484;52.382;5.260;2023-12-28T04:16:15;15.98;;;2.60;;
44764;SDS011;30484;52.382;5.260;2023-12-28T04:18:44;17.55;;;2.78;;
44764;SDS011;30484;52.382;5.260;2023-12-28T04:21:13;18.58;;;3.05;;
44764;SDS011;30484;52.382;5.260;2023-12-28T04:23:41;13.57;;;2.80;;
44764;SDS011;30484;52.382;5.260;2023-12-28T04:26:11;14.50;;;2.67;;
44764;SDS011;30484;52.382;5.260;2023-12-28T04:28:39;13.25;;;2.53;;
44764;SDS011;30484;52.382;5.260;2023-12-28T04:31:07;15.00;;;2.75;;
44764;SDS011;30484;52.382;5.260;2023-12-28T04:33:36;18.45;;;2.30;;
44764;SDS011;30484;52.382;5.260;2023-12-28T04:36:04;17.05;;;2.92;;
44764;SDS011;30484;52.382;5.260;2023-12-28T04:38:33;15.00;;;2.75;;
44764;SDS011;30484;52.382;5.260;2023-12-28T04:41:02;19.70;;;3.45;;
44764;SDS011;30484;52.382;5.260;2023-12-28T04:43:31;14.18;;;1.88;;
44764;SDS011;30484;52.382;5.260;2023-12-28T04:46:02;12.27;;;2.67;;
44764;SDS011;30484;52.382;5.260;2023-12-28T04:48:31;14.65;;;2.63;;
44764;SDS011;30484;52.382;5.260;2023-12-28T04:51:01;16.02;;;2.53;;
44764;SDS011;30484;52.382;5.260;2023-12-28T04:53:30;14.52;;;2.60;;
44764;SDS011;30484;52.382;5.260;2023-12-28T04:56:00;20.77;;;2.63;;
44764;SDS011;30484;52.382;5.260;2023-12-28T04:58:28;27.17;;;2.60;;
44764;SDS011;30484;52.382;5.260;2023-12-28T05:00:57;19.15;;;2.83;;
44764;SDS011;30484;52.382;5.260;2023-12-28T05:03:28;23.80;;;3.08;;
44764;SDS011;30484;52.382;5.260;2023-12-28T05:05:57;15.35;;;2.83;;
44764;SDS011;30484;52.382;5.260;2023-12-28T05:08:25;18.02;;;2.45;;
44764;SDS011;30484;52.382;5.260;2023-12-28T05:10:53;20.65;;;2.75;;
44764;SDS011;30484;52.382;5.260;2023-12-28T05:13:21;20.30;;;2.78;;
44764;SDS011;30484;52.382;5.260;2023-12-28T05:15:50;30.25;;;3.83;;
44764;SDS011;30484;52.382;5.260;2023-12-28T05:18:19;18.95;;;2.38;;
44764;SDS011;30484;52.382;5.260;2023-12-28T05:20:48;29.13;;;2.85;;
44764;SDS011;30484;52.382;5.260;2023-12-28T05:23:16;28.92;;;3.03;;
44764;SDS011;30484;52.382;5.260;2023-12-28T05:25:44;17.85;;;2.83;;
44764;SDS011;30484;52.382;5.260;2023-12-28T05:28:14;18.35;;;2.58;;
44764;SDS011;30484;52.382;5.260;2023-12-28T05:30:42;17.45;;;2.50;;
44764;SDS011;30484;52.382;5.260;2023-12-28T05:33:11;19.05;;;3.03;;
44764;SDS011;30484;52.382;5.260;2023-12-28T05:35:40;23.67;;;3.55;;
44764;SDS011;30484;52.382;5.260;2023-12-28T05:38:09;21.17;;;2.65;;
44764;SDS011;30484;52.382;5.260;2023-12-28T05:40:38;20.70;;;2.45;;
44764;SDS011;30484;52.382;5.260;2023-12-28T05:43:06;22.08;;;3.05;;
44764;SDS011;30484;52.382;5.260;2023-12-28T05:45:34;22.40;;;3.25;;
44764;SDS011;30484;52.382;5.260;2023-12-28T05:48:03;15.68;;;2.90;;
44764;SDS011;30484;52.382;5.260;2023-12-28T05:50:32;24.58;;;2.90;;
44764;SDS011;30484;52.382;5.260;2023-12-28T05:53:02;19.17;;;2.75;;
44764;SDS011;30484;52.382;5.260;2023-12-28T05:55:30;18.30;;;2.63;;
44764;SDS011;30484;52.382;5.260;2023-12-28T05:57:59;24.55;;;4.13;;
44764;SDS011;30484;52.382;5.260;2023-12-28T06:00:28;14.68;;;2.45;;
44764;SDS011;30484;52.382;5.260;2023-12-28T06:02:56;27.15;;;3.25;;
44764;SDS011;30484;52.382;5.260;2023-12-28T06:05:24;24.00;;;3.50;;
44764;SDS011;30484;52.382;5.260;2023-12-28T06:07:53;22.08;;;3.42;;
44764;SDS011;30484;52.382;5.260;2023-12-28T06:10:23;18.90;;;2.88;;
44764;SDS011;30484;52.382;5.260;2023-12-28T06:12:51;21.73;;;3.63;;
44764;SDS011;30484;52.382;5.260;2023-12-28T06:15:20;27.08;;;3.08;;
44764;SDS011;30484;52.382;5.260;2023-12-28T06:17:48;20.35;;;3.13;;
44764;SDS011;30484;52.382;5.260;2023-12-28T06:20:17;24.77;;;3.08;;
44764;SDS011;30484;52.382;5.260;2023-12-28T06:22:45;23.55;;;3.35;;
44764;SDS011;30484;52.382;5.260;2023-12-28T06:25:15;25.13;;;4.20;;
44764;SDS011;30484;52.382;5.260;2023-12-28T06:27:45;30.65;;;3.63;;
44764;SDS011;30484;52.382;5.260;2023-12-28T06:30:13;25.80;;;3.67;;
44764;SDS011;30484;52.382;5.260;2023-12-28T06:32:42;18.75;;;3.08;;
44764;SDS011;30484;52.382;5.260;2023-12-28T06:35:10;29.33;;;3.38;;
44764;SDS011;30484;52.382;5.260;2023-12-28T06:37:39;28.75;;;3.45;;
44764;SDS011;30484;52.382;5.260;2023-12-28T06:40:07;19.52;;;2.78;;
44764;SDS011;30484;52.382;5.260;2023-12-28T06:42:37;22.88;;;3.38;;
44764;SDS011;30484;52.382;5.260;2023-12-28T06:45:07;27.63;;;3.47;;
44764;SDS011;30484;52.382;5.260;2023-12-28T06:47:36;30.92;;;4.28;;
44764;SDS011;30484;52.382;5.260;2023-12-28T06:50:05;28.15;;;3.85;;
44764;SDS011;30484;52.382;5.260;2023-12-28T06:52:34;32.22;;;3.85;;
44764;SDS011;30484;52.382;5.260;2023-12-28T06:55:03;23.67;;;4.07;;
44764;SDS011;30484;52.382;5.260;2023-12-28T06:57:31;33.75;;;3.67;;
44764;SDS011;30484;52.382;5.260;2023-12-28T07:00:00;33.85;;;4.45;;
44764;SDS011;30484;52.382;5.260;2023-12-28T07:02:30;23.73;;;3.42;;
44764;SDS011;30484;52.382;5.260;2023-12-28T07:04:58;27.10;;;4.30;;
44764;SDS011;30484;52.382;5.260;2023-12-28T07:07:27;23.70;;;4.40;;
44764;SDS011;30484;52.382;5.260;2023-12-28T07:09:55;26.48;;;3.33;;
44764;SDS011;30484;52.382;5.260;2023-12-28T07:12:24;40.35;;;4.38;;
44764;SDS011;30484;52.382;5.260;2023-12-28T07:14:51;30.63;;;3.65;;
44764;SDS011;30484;52.382;5.260;2023-12-28T07:17:19;32.17;;;4.20;;
44764;SDS011;30484;52.382;5.260;2023-12-28T07:19:49;29.38;;;3.53;;
44764;SDS011;30484;52.382;5.260;2023-12-28T07:22:18;29.02;;;3.67;;
44764;SDS011;30484;52.382;5.260;2023-12-28T07:24:46;36.80;;;3.88;;
44764;SDS011;30484;52.382;5.260;2023-12-28T07:27:14;33.65;;;4.60;;
44764;SDS011;30484;52.382;5.260;2023-12-28T07:29:42;27.65;;;4.10;;
44764;SDS011;30484;52.382;5.260;2023-12-28T07:32:11;32.13;;;4.50;;
44764;SDS011;30484;52.382;5.260;2023-12-28T07:34:40;24.02;;;3.47;;
44764;SDS011;30484;52.382;5.260;2023-12-28T07:37:10;33.65;;;3.42;;
44764;SDS011;30484;52.382;5.260;2023-12-28T07:39:38;29.75;;;3.83;;
44764;SDS011;30484;52.382;5.260;2023-12-28T07:42:07;28.48;;;4.32;;
44764;SDS011;30484;52.382;5.260;2023-12-28T07:44:36;34.25;;;4.15;;
44764;SDS011;30484;52.382;5.260;2023-12-28T07:47:04;32.88;;;3.95;;
44764;SDS011;30484;52.382;5.260;2023-12-28T07:49:35;26.70;;;3.65;;
44764;SDS011;30484;52.382;5.260;2023-12-28T07:52:04;31.42;;;4.00;;
44764;SDS011;30484;52.382;5.260;2023-12-28T07:54:34;34.63;;;4.40;;
44764;SDS011;30484;52.382;5.260;2023-12-28T07:57:02;27.88;;;3.60;;
44764;SDS011;30484;52.382;5.260;2023-12-28T07:59:31;22.30;;;3.85;;
44764;SDS011;30484;52.382;5.260;2023-12-28T08:02:00;33.50;;;4.35;;
44764;SDS011;30484;52.382;5.260;2023-12-28T08:04:28;25.83;;;3.33;;
44764;SDS011;30484;52.382;5.260;2023-12-28T08:06:56;31.75;;;4.28;;
44764;SDS011;30484;52.382;5.260;2023-12-28T08:09:25;26.65;;;3.97;;
44764;SDS011;30484;52.382;5.260;2023-12-28T08:11:55;35.03;;;3.92;;
44764;SDS011;30484;52.382;5.260;2023-12-28T08:14:24;33.70;;;3.42;;
44764;SDS011;30484;52.382;5.260;2023-12-28T08:16:52;39.13;;;4.70;;
44764;SDS011;30484;52.382;5.260;2023-12-28T08:19:20;30.77;;;4.18;;
44764;SDS011;30484;52.382;5.260;2023-12-28T08:21:48;33.05;;;3.35;;
44764;SDS011;30484;52.382;5.260;2023-12-28T08:24:17;27.33;;;4.00;;
44764;SDS011;30484;52.382;5.260;2023-12-28T08:26:45;34.45;;;3.55;;
44764;SDS011;30484;52.382;5.260;2023-12-28T08:29:14;33.80;;;3.83;;
44764;SDS011;30484;52.382;5.260;2023-12-28T08:31:44;27.35;;;3.22;;
44764;SDS011;30484;52.382;5.260;2023-12-28T08:34:15;23.52;;;3.25;;
44764;SDS011;30484;52.382;5.260;2023-12-28T08:36:43;31.02;;;3.67;;
44764;SDS011;30484;52.382;5.260;2023-12-28T08:39:11;31.35;;;4.57;;
44764;SDS011;30484;52.382;5.260;2023-12-28T08:41:40;31.17;;;4.38;;
44764;SDS011;30484;52.382;5.260;2023-12-28T08:44:08;29.85;;;3.85;;
44764;SDS011;30484;52.382;5.260;2023-12-28T08:46:37;30.20;;;3.67;;
44764;SDS011;30484;52.382;5.260;2023-12-28T08:49:06;28.38;;;3.47;;
44764;SDS011;30484;52.382;5.260;2023-12-28T08:51:34;32.28;;;3.60;;
44764;SDS011;30484;52.382;5.260;2023-12-28T08:54:02;26.33;;;3.78;;
44764;SDS011;30484;52.382;5.260;2023-12-28T08:56:31;24.50;;;3.22;;
44764;SDS011;30484;52.382;5.260;2023-12-28T08:58:59;20.83;;;3.50;;
44764;SDS011;30484;52.382;5.260;2023-12-28T09:01:27;29.75;;;3.33;;
44764;SDS011;30484;52.382;5.260;2023-12-28T09:03:57;29.40;;;3.00;;
44764;SDS011;30484;52.382;5.260;2023-12-28T09:06:27;28.52;;;4.13;;
44764;SDS011;30484;52.382;5.260;2023-12-28T09:08:56;26.27;;;3.85;;
44764;SDS011;30484;52.382;5.260;2023-12-28T09:11:24;30.08;;;3.25;;
44764;SDS011;30484;52.382;5.260;2023-12-28T09:13:53;34.05;;;4.10;;
44764;SDS011;30484;52.382;5.260;2023-12-28T09:16:21;24.70;;;4.00;;
44764;SDS011;30484;52.382;5.260;2023-12-28T09:18:50;29.70;;;3.65;;
44764;SDS011;30484;52.382;5.260;2023-12-28T09:21:20;24.15;;;4.13;;
44764;SDS011;30484;52.382;5.260;2023-12-28T09:23:48;25.63;;;3.58;;
44764;SDS011;30484;52.382;5.260;2023-12-28T09:26:16;27.73;;;3.53;;
44764;SDS011;30484;52.382;5.260;2023-12-28T09:28:45;32.25;;;4.28;;
44764;SDS011;30484;52.382;5.260;2023-12-28T09:31:13;24.52;;;3.22;;
44764;SDS011;30484;52.382;5.260;2023-12-28T09:33:42;34.30;;;5.00;;
44764;SDS011;30484;52.382;5.260;2023-12-28T09:36:11;19.17;;;3.40;;
44764;SDS011;30484;52.382;5.260;2023-12-28T09:38:41;20.50;;;3.38;;
44764;SDS011;30484;52.382;5.260;2023-12-28T09:41:11;37.92;;;4.60;;
44764;SDS011;30484;52.382;5.260;2023-12-28T09:43:43;27.02;;;4.85;;
44764;SDS011;30484;52.382;5.260;2023-12-28T09:46:23;30.35;;;3.67;;
44764;SDS011;30484;52.382;5.260;2023-12-28T09:48:52;24.10;;;3.42;;
44764;SDS011;30484;52.382;5.260;2023-12-28T09:51:23;30.02;;;3.38;;
44764;SDS011;30484;52.382;5.260;2023-12-28T09:53:53;32.33;;;3.65;;
44764;SDS011;30484;52.382;5.260;2023-12-28T09:56:22;26.85;;;3.30;;
44764;SDS011;30484;52.382;5.260;2023-12-28T09:58:54;29.63;;;3.97;;
44764;SDS011;30484;52.382;5.260;2023-12-28T10:01:24;29.35;;;4.32;;
44764;SDS011;30484;52.382;5.260;2023-12-28T10:03:53;30.60;;;4.13;;
44764;SDS011;30484;52.382;5.260;2023-12-28T10:06:21;23.75;;;3.30;;
44764;SDS011;30484;52.382;5.260;2023-12-28T10:08:49;31.27;;;4.47;;
44764;SDS011;30484;52.382;5.260;2023-12-28T10:11:19;29.15;;;4.07;;
44764;SDS011;30484;52.382;5.260;2023-12-28T10:13:48;34.75;;;4.35;;
44764;SDS011;30484;52.382;5.260;2023-12-28T10:16:17;29.08;;;3.88;;
44764;SDS011;30484;52.382;5.260;2023-12-28T10:18:45;35.30;;;4.60;;
44764;SDS011;30484;52.382;5.260;2023-12-28T10:21:14;28.77;;;4.05;;
44764;SDS011;30484;52.382;5.260;2023-12-28T10:23:42;28.80;;;3.55;;
44764;SDS011;30484;52.382;5.260;2023-12-28T10:26:11;33.13;;;4.47;;
44764;SDS011;30484;52.382;5.260;2023-12-28T10:28:40;26.88;;;4.55;;
44764;SDS011;30484;52.382;5.260;2023-12-28T10:31:09;27.60;;;3.47;;
44764;SDS011;30484;52.382;5.260;2023-12-28T10:33:39;28.58;;;3.13;;
44764;SDS011;30484;52.382;5.260;2023-12-28T10:36:09;26.48;;;3.92;;
44764;SDS011;30484;52.382;5.260;2023-12-28T10:38:38;28.35;;;4.32;;
44764;SDS011;30484;52.382;5.260;2023-12-28T10:41:09;35.42;;;4.82;;
44764;SDS011;30484;52.382;5.260;2023-12-28T10:43:42;28.40;;;3.75;;
44764;SDS011;30484;52.382;5.260;2023-12-28T10:46:21;34.33;;;4.47;;
44764;SDS011;30484;52.382;5.260;2023-12-28T10:48:57;24.60;;;3.88;;
44764;SDS011;30484;52.382;5.260;2023-12-28T10:51:32;39.45;;;3.88;;
44764;SDS011;30484;52.382;5.260;2023-12-28T10:54:06;31.55;;;3.80;;
44764;SDS011;30484;52.382;5.260;2023-12-28T10:56:49;35.33;;;4.03;;
44764;SDS011;30484;52.382;5.260;2023-12-28T10:59:32;35.60;;;4.20;;
44764;SDS011;30484;52.382;5.260;2023-12-28T11:02:17;37.20;;;4.68;;
44764;SDS011;30484;52.382;5.260;2023-12-28T11:04:49;35.58;;;4.25;;
44764;SDS011;30484;52.382;5.260;2023-12-28T11:07:19;26.10;;;4.03;;
44764;SDS011;30484;52.382;5.260;2023-12-28T11:09:49;31.30;;;4.10;;
44764;SDS011;30484;52.382;5.260;2023-12-28T11:12:18;35.75;;;4.50;;
44764;SDS011;30484;52.382;5.260;2023-12-28T11:14:48;31.85;;;4.38;;
44764;SDS011;30484;52.382;5.260;2023-12-28T11:17:19;30.08;;;3.67;;
44764;SDS011;30484;52.382;5.260;2023-12-28T11:19:51;31.48;;;3.90;;
44764;SDS011;30484;52.382;5.260;2023-12-28T11:22:21;35.75;;;3.90;;
44764;SDS011;30484;52.382;5.260;2023-12-28T11:24:51;31.10;;;3.65;;
44764;SDS011;30484;52.382;5.260;2023-12-28T11:27:20;28.30;;;4.00;;
44764;SDS011;30484;52.382;5.260;2023-12-28T11:29:52;30.90;;;4.32;;
44764;SDS011;30484;52.382;5.260;2023-12-28T11:32:20;34.47;;;4.25;;
44764;SDS011;30484;52.382;5.260;2023-12-28T11:34:56;29.67;;;3.85;;
44764;SDS011;30484;52.382;5.260;2023-12-28T11:37:26;30.10;;;3.85;;
44764;SDS011;30484;52.382;5.260;2023-12-28T11:39:57;31.70;;;4.15;;
44764;SDS011;30484;52.382;5.260;2023-12-28T11:42:28;31.15;;;4.35;;
44764;SDS011;30484;52.382;5.260;2023-12-28T11:44:57;33.83;;;4.90;;
44764;SDS011;30484;52.382;5.260;2023-12-28T11:47:27;38.53;;;4.47;;
44764;SDS011;30484;52.382;5.260;2023-12-28T11:50:05;34.25;;;4.38;;
44764;SDS011;30484;52.382;5.260;2023-12-28T11:52:34;38.00;;;4.38;;
44764;SDS011;30484;52.382;5.260;2023-12-28T11:55:03;29.48;;;4.10;;
44764;SDS011;30484;52.382;5.260;2023-12-28T11:57:32;35.35;;;4.05;;
44764;SDS011;30484;52.382;5.260;2023-12-28T12:00:02;30.15;;;4.65;;
44764;SDS011;30484;52.382;5.260;2023-12-28T12:02:33;29.23;;;4.30;;
44764;SDS011;30484;52.382;5.260;2023-12-28T12:05:02;28.00;;;4.43;;
44764;SDS011;30484;52.382;5.260;2023-12-28T12:07:31;42.72;;;4.05;;
44764;SDS011;30484;52.382;5.260;2023-12-28T12:09:58;32.88;;;4.15;;
44764;SDS011;30484;52.382;5.260;2023-12-28T12:12:29;41.53;;;4.07;;
44764;SDS011;30484;52.382;5.260;2023-12-28T12:14:57;28.25;;;3.78;;
44764;SDS011;30484;52.382;5.260;2023-12-28T12:17:28;40.75;;;4.78;;
44764;SDS011;30484;52.382;5.260;2023-12-28T12:19:57;31.70;;;4.18;;
44764;SDS011;30484;52.382;5.260;2023-12-28T12:22:25;38.08;;;4.15;;
44764;SDS011;30484;52.382;5.260;2023-12-28T12:24:55;36.83;;;3.70;;
44764;SDS011;30484;52.382;5.260;2023-12-28T12:27:25;31.25;;;3.97;;
44764;SDS011;30484;52.382;5.260;2023-12-28T12:29:54;25.52;;;4.18;;
44764;SDS011;30484;52.382;5.260;2023-12-28T12:32:23;33.90;;;4.30;;
44764;SDS011;30484;52.382;5.260;2023-12-28T12:34:53;29.65;;;3.42;;
44764;SDS011;30484;52.382;5.260;2023-12-28T12:37:22;26.05;;;3.42;;
44764;SDS011;30484;52.382;5.260;2023-12-28T12:39:50;23.95;;;3.42;;
44764;SDS011;30484;52.382;5.260;2023-12-28T12:42:18;35.08;;;3.63;;
44764;SDS011;30484;52.382;5.260;2023-12-28T12:44:47;30.00;;;4.47;;
44764;SDS011;30484;52.382;5.260;2023-12-28T12:47:15;32.35;;;4.43;;
44764;SDS011;30484;52.382;5.260;2023-12-28T12:49:44;35.03;;;4.65;;
44764;SDS011;30484;52.382;5.260;2023-12-28T12:52:13;40.03;;;4.15;;
44764;SDS011;30484;52.382;5.260;2023-12-28T12:54:42;39.65;;;4.55;;
44764;SDS011;30484;52.382;5.260;2023-12-28T12:57:10;32.58;;;4.55;;
44764;SDS011;30484;52.382;5.260;2023-12-28T12:59:40;30.33;;;4.22;;
44764;SDS011;30484;52.382;5.260;2023-12-28T13:02:09;35.13;;;4.75;;
44764;SDS011;30484;52.382;5.260;2023-12-28T13:04:39;29.48;;;4.07;;
44764;SDS011;30484;52.382;5.260;2023-12-28T13:07:08;31.20;;;4.03;;
44764;SDS011;30484;52.382;5.260;2023-12-28T13:09:38;26.55;;;3.88;;
44764;SDS011;30484;52.382;5.260;2023-12-28T13:12:06;33.78;;;4.80;;
44764;SDS011;30484;52.382;5.260;2023-12-28T13:14:35;28.70;;;3.78;;
44764;SDS011;30484;52.382;5.260;2023-12-28T13:17:03;27.90;;;3.88;;
44764;SDS011;30484;52.382;5.260;2023-12-28T13:19:32;28.13;;;4.20;;
44764;SDS011;30484;52.382;5.260;2023-12-28T13:22:00;28.05;;;3.78;;
44764;SDS011;30484;52.382;5.260;2023-12-28T13:24:29;30.80;;;5.03;;
44764;SDS011;30484;52.382;5.260;2023-12-28T13:26:58;31.85;;;4.20;;
44764;SDS011;30484;52.382;5.260;2023-12-28T13:29:28;33.80;;;4.53;;
44764;SDS011;30484;52.382;5.260;2023-12-28T13:31:56;27.45;;;3.47;;
44764;SDS011;30484;52.382;5.260;2023-12-28T13:34:24;24.58;;;3.55;;
44764;SDS011;30484;52.382;5.260;2023-12-28T13:36:55;25.38;;;4.45;;
44764;SDS011;30484;52.382;5.260;2023-12-28T13:39:23;30.50;;;4.65;;
44764;SDS011;30484;52.382;5.260;2023-12-28T13:41:55;23.48;;;4.47;;
44764;SDS011;30484;52.382;5.260;2023-12-28T13:44:24;30.45;;;4.10;;
44764;SDS011;30484;52.382;5.260;2023-12-28T13:46:53;26.95;;;3.70;;
44764;SDS011;30484;52.382;5.260;2023-12-28T13:49:21;23.88;;;3.72;;
44764;SDS011;30484;52.382;5.260;2023-12-28T13:51:49;30.77;;;3.53;;
44764;SDS011;30484;52.382;5.260;2023-12-28T13:54:18;31.73;;;4.43;;
44764;SDS011;30484;52.382;5.260;2023-12-28T13:56:47;42.45;;;4.22;;
44764;SDS011;30484;52.382;5.260;2023-12-28T13:59:15;29.50;;;3.20;;
44764;SDS011;30484;52.382;5.260;2023-12-28T14:01:45;42.55;;;4.80;;
44764;SDS011;30484;52.382;5.260;2023-12-28T14:04:13;24.30;;;3.58;;
44764;SDS011;30484;52.382;5.260;2023-12-28T14:06:42;34.10;;;3.92;;
44764;SDS011;30484;52.382;5.260;2023-12-28T14:09:10;28.33;;;4.30;;
44764;SDS011;30484;52.382;5.260;2023-12-28T14:11:40;21.27;;;3.20;;
44764;SDS011;30484;52.382;5.260;2023-12-28T14:14:08;28.63;;;3.90;;
44764;SDS011;30484;52.382;5.260;2023-12-28T14:16:37;22.63;;;3.60;;
44764;SDS011;30484;52.382;5.260;2023-12-28T14:19:07;28.25;;;3.55;;
44764;SDS011;30484;52.382;5.260;2023-12-28T14:21:37;30.67;;;3.80;;
44764;SDS011;30484;52.382;5.260;2023-12-28T14:24:06;35.47;;;4.03;;
44764;SDS011;30484;52.382;5.260;2023-12-28T14:26:39;31.77;;;3.75;;
44764;SDS011;30484;52.382;5.260;2023-12-28T14:29:10;33.10;;;4.78;;
44764;SDS011;30484;52.382;5.260;2023-12-28T14:31:39;31.55;;;3.88;;
44764;SDS011;30484;52.382;5.260;2023-12-28T14:34:09;29.98;;;3.75;;
44764;SDS011;30484;52.382;5.260;2023-12-28T14:36:38;27.63;;;4.25;;
44764;SDS011;30484;52.382;5.260;2023-12-28T14:39:08;33.70;;;4.50;;
44764;SDS011;30484;52.382;5.260;2023-12-28T14:41:36;28.48;;;3.80;;
44764;SDS011;30484;52.382;5.260;2023-12-28T14:44:09;36.50;;;5.65;;
44764;SDS011;30484;52.382;5.260;2023-12-28T14:46:38;28.77;;;3.85;;